sensor_id;sensor_type;location;lat;lon;timestamp;P1;durP1;ratioP1;P2;durP2;ratioP2
12232;SDS011;6179;51.748;8.728;2023-08-17T00:05:31;8.97;;;1.57;;
12232;SDS011;6179;51.748;8.728;2023-08-17T00:11:33;4.00;;;1.77;;
12232;SDS011;6179;51.748;8.728;2023-08-17T00:17:34;2.70;;;1.50;;
12232;SDS011;6179;51.748;8.728;2023-08-17T00:23:35;2.93;;;1.13;;
12232;SDS011;6179;51.748;8.728;2023-08-17T00:29:36;6.43;;;1.40;;
12232;SDS011;6179;51.748;8.728;2023-08-17T00:35:36;1.47;;;1.37;;
12232;SDS011;6179;51.748;8.728;2023-08-17T00:41:37;1.07;;;1.00;;
12232;SDS011;6179;51.748;8.728;2023-08-17T00:47:37;1.97;;;1.57;;
12232;SDS011;6179;51.748;8.728;2023-08-17T00:53:38;2.07;;;1.63;;
12232;SDS011;6179;51.748;8.728;2023-08-17T00:59:39;3.63;;;1.50;;
12232;SDS011;6179;51.748;8.728;2023-08-17T01:05:40;9.40;;;1.80;;
12232;SDS011;6179;51.748;8.728;2023-08-17T01:18:01;2.20;;;1.37;;
12232;SDS011;6179;51.748;8.728;2023-08-17T01:24:25;3.77;;;1.73;;
12232;SDS011;6179;51.748;8.728;2023-08-17T01:30:26;2.07;;;1.97;;
12232;SDS011;6179;51.748;8.728;2023-08-17T01:36:37;3.10;;;1.60;;
12232;SDS011;6179;51.748;8.728;2023-08-17T01:42:42;4.60;;;1.70;;
12232;SDS011;6179;51.748;8.728;2023-08-17T01:48:44;6.40;;;1.40;;
12232;SDS011;6179;51.748;8.728;2023-08-17T01:54:45;3.47;;;1.43;;
12232;SDS011;6179;51.748;8.728;2023-08-17T02:00:45;4.97;;;1.67;;
12232;SDS011;6179;51.748;8.728;2023-08-17T02:06:46;3.23;;;1.77;;
12232;SDS011;6179;51.748;8.728;2023-08-17T02:12:47;2.73;;;1.47;;
12232;SDS011;6179;51.748;8.728;2023-08-17T02:18:47;4.47;;;1.77;;
12232;SDS011;6179;51.748;8.728;2023-08-17T02:24:48;4.80;;;1.90;;
12232;SDS011;6179;51.748;8.728;2023-08-17T02:30:49;6.17;;;2.60;;
12232;SDS011;6179;51.748;8.728;2023-08-17T02:36:55;3.33;;;2.27;;
12232;SDS011;6179;51.748;8.728;2023-08-17T02:42:56;2.20;;;2.00;;
12232;SDS011;6179;51.748;8.728;2023-08-17T02:48:56;3.87;;;1.93;;
12232;SDS011;6179;51.748;8.728;2023-08-17T02:54:57;14.33;;;2.43;;
12232;SDS011;6179;51.748;8.728;2023-08-17T03:00:57;1.90;;;1.70;;
12232;SDS011;6179;51.748;8.728;2023-08-17T03:06:58;1.80;;;1.50;;
12232;SDS011;6179;51.748;8.728;2023-08-17T03:12:59;10.90;;;2.80;;
12232;SDS011;6179;51.748;8.728;2023-08-17T03:18:59;6.10;;;2.40;;
12232;SDS011;6179;51.748;8.728;2023-08-17T03:25:00;4.53;;;1.73;;
12232;SDS011;6179;51.748;8.728;2023-08-17T03:31:02;7.77;;;2.40;;
12232;SDS011;6179;51.748;8.728;2023-08-17T03:37:03;2.90;;;1.70;;
12232;SDS011;6179;51.748;8.728;2023-08-17T03:43:05;1.77;;;1.67;;
12232;SDS011;6179;51.748;8.728;2023-08-17T03:49:05;10.60;;;2.77;;
12232;SDS011;6179;51.748;8.728;2023-08-17T03:55:06;2.63;;;2.00;;
12232;SDS011;6179;51.748;8.728;2023-08-17T04:01:07;5.23;;;1.97;;
12232;SDS011;6179;51.748;8.728;2023-08-17T04:07:08;3.47;;;1.70;;
12232;SDS011;6179;51.748;8.728;2023-08-17T04:13:08;5.73;;;2.53;;
12232;SDS011;6179;51.748;8.728;2023-08-17T04:19:09;2.03;;;1.83;;
12232;SDS011;6179;51.748;8.728;2023-08-17T04:25:10;6.07;;;2.20;;
12232;SDS011;6179;51.748;8.728;2023-08-17T04:31:11;4.50;;;2.23;;
12232;SDS011;6179;51.748;8.728;2023-08-17T04:37:11;3.37;;;2.00;;
12232;SDS011;6179;51.748;8.728;2023-08-17T04:43:12;4.60;;;4.03;;
12232;SDS011;6179;51.748;8.728;2023-08-17T04:49:13;5.23;;;1.93;;
12232;SDS011;6179;51.748;8.728;2023-08-17T04:55:14;3.70;;;2.77;;
12232;SDS011;6179;51.748;8.728;2023-08-17T05:01:14;3.13;;;2.70;;
12232;SDS011;6179;51.748;8.728;2023-08-17T05:07:15;4.50;;;3.83;;
12232;SDS011;6179;51.748;8.728;2023-08-17T05:13:16;2.60;;;2.40;;
12232;SDS011;6179;51.748;8.728;2023-08-17T05:19:17;7.03;;;3.53;;
12232;SDS011;6179;51.748;8.728;2023-08-17T05:25:17;4.00;;;3.37;;
12232;SDS011;6179;51.748;8.728;2023-08-17T05:31:18;10.60;;;3.70;;
12232;SDS011;6179;51.748;8.728;2023-08-17T05:37:20;8.13;;;3.87;;
12232;SDS011;6179;51.748;8.728;2023-08-17T05:43:20;8.23;;;3.10;;
12232;SDS011;6179;51.748;8.728;2023-08-17T05:49:21;3.60;;;3.23;;
12232;SDS011;6179;51.748;8.728;2023-08-17T05:55:22;4.03;;;3.60;;
12232;SDS011;6179;51.748;8.728;2023-08-17T06:01:22;8.40;;;4.70;;
12232;SDS011;6179;51.748;8.728;2023-08-17T06:07:23;10.27;;;4.60;;
12232;SDS011;6179;51.748;8.728;2023-08-17T06:13:23;6.93;;;4.40;;
12232;SDS011;6179;51.748;8.728;2023-08-17T06:19:24;11.07;;;4.77;;
12232;SDS011;6179;51.748;8.728;2023-08-17T06:25:25;12.80;;;5.57;;
12232;SDS011;6179;51.748;8.728;2023-08-17T06:31:25;12.10;;;5.47;;
12232;SDS011;6179;51.748;8.728;2023-08-17T06:37:27;7.40;;;5.33;;
12232;SDS011;6179;51.748;8.728;2023-08-17T06:43:28;10.13;;;5.60;;
12232;SDS011;6179;51.748;8.728;2023-08-17T06:49:30;7.73;;;5.70;;
12232;SDS011;6179;51.748;8.728;2023-08-17T06:55:31;14.77;;;3.70;;
12232;SDS011;6179;51.748;8.728;2023-08-17T07:01:31;3.87;;;2.73;;
12232;SDS011;6179;51.748;8.728;2023-08-17T07:07:32;5.80;;;3.70;;
12232;SDS011;6179;51.748;8.728;2023-08-17T07:13:33;2.97;;;2.67;;
12232;SDS011;6179;51.748;8.728;2023-08-17T07:19:34;2.93;;;2.07;;
12232;SDS011;6179;51.748;8.728;2023-08-17T07:25:34;1.60;;;1.40;;
12232;SDS011;6179;51.748;8.728;2023-08-17T07:31:35;2.40;;;1.83;;
12232;SDS011;6179;51.748;8.728;2023-08-17T07:37:37;2.07;;;1.87;;
12232;SDS011;6179;51.748;8.728;2023-08-17T07:43:38;14.07;;;1.67;;
12232;SDS011;6179;51.748;8.728;2023-08-17T07:49:38;0.87;;;0.87;;
12232;SDS011;6179;51.748;8.728;2023-08-17T07:55:39;0.80;;;0.80;;
12232;SDS011;6179;51.748;8.728;2023-08-17T08:01:39;1.43;;;1.33;;
12232;SDS011;6179;51.748;8.728;2023-08-17T08:07:40;0.70;;;0.70;;
12232;SDS011;6179;51.748;8.728;2023-08-17T08:13:42;1.10;;;1.00;;
12232;SDS011;6179;51.748;8.728;2023-08-17T08:19:43;3.07;;;2.10;;
12232;SDS011;6179;51.748;8.728;2023-08-17T08:25:43;2.83;;;2.40;;
12232;SDS011;6179;51.748;8.728;2023-08-17T08:31:44;5.50;;;1.97;;
12232;SDS011;6179;51.748;8.728;2023-08-17T08:37:44;12.67;;;2.10;;
12232;SDS011;6179;51.748;8.728;2023-08-17T08:43:45;1.60;;;1.47;;
12232;SDS011;6179;51.748;8.728;2023-08-17T08:49:50;5.43;;;2.10;;
12232;SDS011;6179;51.748;8.728;2023-08-17T08:56:04;2.93;;;2.73;;
12232;SDS011;6179;51.748;8.728;2023-08-17T09:02:12;4.10;;;2.97;;
12232;SDS011;6179;51.748;8.728;2023-08-17T09:08:17;3.20;;;2.17;;
12232;SDS011;6179;51.748;8.728;2023-08-17T09:14:22;2.60;;;2.10;;
12232;SDS011;6179;51.748;8.728;2023-08-17T09:26:40;12.50;;;4.37;;
12232;SDS011;6179;51.748;8.728;2023-08-17T09:32:40;3.53;;;2.67;;
12232;SDS011;6179;51.748;8.728;2023-08-17T09:38:41;4.33;;;3.43;;
12232;SDS011;6179;51.748;8.728;2023-08-17T09:44:42;2.97;;;2.20;;
12232;SDS011;6179;51.748;8.728;2023-08-17T09:50:43;3.50;;;2.33;;
12232;SDS011;6179;51.748;8.728;2023-08-17T09:56:44;6.20;;;2.93;;
12232;SDS011;6179;51.748;8.728;2023-08-17T10:02:45;3.00;;;2.47;;
12232;SDS011;6179;51.748;8.728;2023-08-17T10:08:50;3.80;;;1.70;;
12232;SDS011;6179;51.748;8.728;2023-08-17T10:14:55;7.77;;;2.73;;
12232;SDS011;6179;51.748;8.728;2023-08-17T10:21:05;3.20;;;2.10;;
12232;SDS011;6179;51.748;8.728;2023-08-17T10:27:09;4.50;;;1.97;;
12232;SDS011;6179;51.748;8.728;2023-08-17T10:33:10;6.17;;;1.80;;
12232;SDS011;6179;51.748;8.728;2023-08-17T10:39:18;6.03;;;2.20;;
12232;SDS011;6179;51.748;8.728;2023-08-17T10:45:29;1.60;;;1.50;;
12232;SDS011;6179;51.748;8.728;2023-08-17T10:51:31;1.67;;;1.37;;
12232;SDS011;6179;51.748;8.728;2023-08-17T10:57:36;4.13;;;1.53;;
12232;SDS011;6179;51.748;8.728;2023-08-17T11:03:38;2.10;;;1.87;;
12232;SDS011;6179;51.748;8.728;2023-08-17T11:09:41;4.97;;;1.83;;
12232;SDS011;6179;51.748;8.728;2023-08-17T11:15:42;2.20;;;1.43;;
12232;SDS011;6179;51.748;8.728;2023-08-17T11:21:44;1.47;;;1.37;;
12232;SDS011;6179;51.748;8.728;2023-08-17T11:27:45;2.17;;;1.80;;
12232;SDS011;6179;51.748;8.728;2023-08-17T11:33:46;2.93;;;1.60;;
12232;SDS011;6179;51.748;8.728;2023-08-17T11:39:47;3.23;;;1.50;;
12232;SDS011;6179;51.748;8.728;2023-08-17T11:45:48;1.13;;;0.93;;
12232;SDS011;6179;51.748;8.728;2023-08-17T11:51:49;6.63;;;1.80;;
12232;SDS011;6179;51.748;8.728;2023-08-17T11:57:51;1.93;;;1.43;;
12232;SDS011;6179;51.748;8.728;2023-08-17T12:03:52;2.40;;;2.20;;
12232;SDS011;6179;51.748;8.728;2023-08-17T12:09:52;1.00;;;1.00;;
12232;SDS011;6179;51.748;8.728;2023-08-17T12:15:53;2.13;;;1.93;;
12232;SDS011;6179;51.748;8.728;2023-08-17T12:21:56;2.53;;;1.73;;
12232;SDS011;6179;51.748;8.728;2023-08-17T12:28:00;2.57;;;1.47;;
12232;SDS011;6179;51.748;8.728;2023-08-17T12:34:01;2.03;;;1.73;;
12232;SDS011;6179;51.748;8.728;2023-08-17T12:40:03;2.37;;;2.17;;
12232;SDS011;6179;51.748;8.728;2023-08-17T12:46:04;3.17;;;1.97;;
12232;SDS011;6179;51.748;8.728;2023-08-17T12:52:05;1.83;;;1.53;;
12232;SDS011;6179;51.748;8.728;2023-08-17T12:58:07;1.60;;;1.43;;
12232;SDS011;6179;51.748;8.728;2023-08-17T13:04:08;2.57;;;2.17;;
12232;SDS011;6179;51.748;8.728;2023-08-17T13:10:09;1.30;;;1.20;;
12232;SDS011;6179;51.748;8.728;2023-08-17T13:16:10;0.90;;;0.90;;
12232;SDS011;6179;51.748;8.728;2023-08-17T13:22:11;0.90;;;0.90;;
12232;SDS011;6179;51.748;8.728;2023-08-17T13:28:12;0.60;;;0.60;;
12232;SDS011;6179;51.748;8.728;2023-08-17T13:34:13;3.50;;;1.10;;
12232;SDS011;6179;51.748;8.728;2023-08-17T13:40:13;1.07;;;1.03;;
12232;SDS011;6179;51.748;8.728;2023-08-17T13:46:14;1.50;;;0.90;;
12232;SDS011;6179;51.748;8.728;2023-08-17T13:52:15;2.80;;;1.00;;
12232;SDS011;6179;51.748;8.728;2023-08-17T13:58:15;0.70;;;0.70;;
12232;SDS011;6179;51.748;8.728;2023-08-17T14:04:16;0.83;;;0.83;;
12232;SDS011;6179;51.748;8.728;2023-08-17T14:10:17;4.73;;;0.50;;
12232;SDS011;6179;51.748;8.728;2023-08-17T14:16:18;0.50;;;0.50;;
12232;SDS011;6179;51.748;8.728;2023-08-17T14:22:18;0.70;;;0.50;;
12232;SDS011;6179;51.748;8.728;2023-08-17T14:28:19;0.60;;;0.60;;
12232;SDS011;6179;51.748;8.728;2023-08-17T14:34:20;0.60;;;0.60;;
12232;SDS011;6179;51.748;8.728;2023-08-17T14:40:21;1.00;;;0.70;;
12232;SDS011;6179;51.748;8.728;2023-08-17T14:46:22;0.70;;;0.67;;
12232;SDS011;6179;51.748;8.728;2023-08-17T14:52:23;1.10;;;1.10;;
12232;SDS011;6179;51.748;8.728;2023-08-17T14:58:23;1.73;;;1.20;;
12232;SDS011;6179;51.748;8.728;2023-08-17T15:04:24;1.23;;;1.13;;
12232;SDS011;6179;51.748;8.728;2023-08-17T15:10:26;1.00;;;1.00;;
12232;SDS011;6179;51.748;8.728;2023-08-17T15:16:26;1.70;;;1.60;;
12232;SDS011;6179;51.748;8.728;2023-08-17T15:22:27;1.73;;;1.57;;
12232;SDS011;6179;51.748;8.728;2023-08-17T15:28:28;1.83;;;1.53;;
12232;SDS011;6179;51.748;8.728;2023-08-17T15:34:28;2.10;;;1.73;;
12232;SDS011;6179;51.748;8.728;2023-08-17T15:40:29;5.03;;;2.17;;
12232;SDS011;6179;51.748;8.728;2023-08-17T15:46:30;3.43;;;2.30;;
12232;SDS011;6179;51.748;8.728;2023-08-17T15:52:31;3.10;;;2.20;;
12232;SDS011;6179;51.748;8.728;2023-08-17T15:58:32;4.90;;;2.37;;
12232;SDS011;6179;51.748;8.728;2023-08-17T16:04:33;2.30;;;2.10;;
12232;SDS011;6179;51.748;8.728;2023-08-17T16:10:33;2.83;;;2.20;;
12232;SDS011;6179;51.748;8.728;2023-08-17T16:16:34;5.10;;;1.93;;
12232;SDS011;6179;51.748;8.728;2023-08-17T16:22:35;2.20;;;2.00;;
12232;SDS011;6179;51.748;8.728;2023-08-17T16:28:35;3.77;;;2.27;;
12232;SDS011;6179;51.748;8.728;2023-08-17T16:34:36;3.33;;;2.40;;
12232;SDS011;6179;51.748;8.728;2023-08-17T16:40:37;5.20;;;2.47;;
12232;SDS011;6179;51.748;8.728;2023-08-17T16:46:37;25.83;;;2.40;;
12232;SDS011;6179;51.748;8.728;2023-08-17T16:52:38;4.07;;;2.37;;
12232;SDS011;6179;51.748;8.728;2023-08-17T16:58:39;2.57;;;1.40;;
12232;SDS011;6179;51.748;8.728;2023-08-17T17:04:42;1.63;;;1.53;;
12232;SDS011;6179;51.748;8.728;2023-08-17T17:10:43;2.47;;;1.63;;
12232;SDS011;6179;51.748;8.728;2023-08-17T17:16:43;4.87;;;2.00;;
12232;SDS011;6179;51.748;8.728;2023-08-17T17:22:44;3.00;;;1.87;;
12232;SDS011;6179;51.748;8.728;2023-08-17T17:28:44;5.60;;;2.10;;
12232;SDS011;6179;51.748;8.728;2023-08-17T17:34:45;4.10;;;1.77;;
12232;SDS011;6179;51.748;8.728;2023-08-17T17:40:45;6.53;;;1.53;;
12232;SDS011;6179;51.748;8.728;2023-08-17T17:46:46;2.60;;;1.57;;
12232;SDS011;6179;51.748;8.728;2023-08-17T17:52:47;5.40;;;2.17;;
12232;SDS011;6179;51.748;8.728;2023-08-17T17:58:47;4.50;;;2.27;;
12232;SDS011;6179;51.748;8.728;2023-08-17T18:04:48;1.73;;;1.50;;
12232;SDS011;6179;51.748;8.728;2023-08-17T18:10:48;5.93;;;1.97;;
12232;SDS011;6179;51.748;8.728;2023-08-17T18:16:49;2.50;;;2.30;;
12232;SDS011;6179;51.748;8.728;2023-08-17T18:22:50;2.40;;;1.27;;
12232;SDS011;6179;51.748;8.728;2023-08-17T18:28:50;5.73;;;2.47;;
12232;SDS011;6179;51.748;8.728;2023-08-17T18:34:51;4.50;;;3.30;;
12232;SDS011;6179;51.748;8.728;2023-08-17T18:40:52;6.17;;;3.17;;
12232;SDS011;6179;51.748;8.728;2023-08-17T18:46:52;12.03;;;3.30;;
12232;SDS011;6179;51.748;8.728;2023-08-17T18:52:53;5.07;;;2.83;;
12232;SDS011;6179;51.748;8.728;2023-08-17T18:58:53;9.03;;;4.27;;
12232;SDS011;6179;51.748;8.728;2023-08-17T19:04:57;6.23;;;3.77;;
12232;SDS011;6179;51.748;8.728;2023-08-17T19:11:00;4.47;;;2.83;;
12232;SDS011;6179;51.748;8.728;2023-08-17T19:17:01;8.17;;;4.27;;
12232;SDS011;6179;51.748;8.728;2023-08-17T19:23:01;7.10;;;3.37;;
12232;SDS011;6179;51.748;8.728;2023-08-17T19:29:02;9.20;;;4.40;;
12232;SDS011;6179;51.748;8.728;2023-08-17T19:35:03;5.17;;;2.83;;
12232;SDS011;6179;51.748;8.728;2023-08-17T19:41:04;6.47;;;3.60;;
12232;SDS011;6179;51.748;8.728;2023-08-17T19:47:05;6.57;;;5.10;;
12232;SDS011;6179;51.748;8.728;2023-08-17T19:53:06;12.33;;;5.50;;
12232;SDS011;6179;51.748;8.728;2023-08-17T19:59:07;7.13;;;5.60;;
12232;SDS011;6179;51.748;8.728;2023-08-17T20:05:08;6.40;;;3.90;;
12232;SDS011;6179;51.748;8.728;2023-08-17T20:11:12;15.70;;;5.57;;
12232;SDS011;6179;51.748;8.728;2023-08-17T20:17:12;13.93;;;5.63;;
12232;SDS011;6179;51.748;8.728;2023-08-17T20:23:13;11.60;;;5.10;;
12232;SDS011;6179;51.748;8.728;2023-08-17T20:29:13;7.43;;;4.80;;
12232;SDS011;6179;51.748;8.728;2023-08-17T20:35:14;12.10;;;5.20;;
12232;SDS011;6179;51.748;8.728;2023-08-17T20:41:15;9.10;;;4.40;;
12232;SDS011;6179;51.748;8.728;2023-08-17T20:47:15;9.70;;;4.50;;
12232;SDS011;6179;51.748;8.728;2023-08-17T20:53:16;9.60;;;4.87;;
12232;SDS011;6179;51.748;8.728;2023-08-17T20:59:17;11.23;;;4.30;;
12232;SDS011;6179;51.748;8.728;2023-08-17T21:05:17;5.40;;;3.43;;
12232;SDS011;6179;51.748;8.728;2023-08-17T21:11:18;6.03;;;4.53;;
12232;SDS011;6179;51.748;8.728;2023-08-17T21:17:19;13.93;;;3.60;;
12232;SDS011;6179;51.748;8.728;2023-08-17T21:23:19;11.57;;;4.60;;
12232;SDS011;6179;51.748;8.728;2023-08-17T21:29:20;4.77;;;2.20;;
12232;SDS011;6179;51.748;8.728;2023-08-17T21:35:21;7.40;;;3.07;;
12232;SDS011;6179;51.748;8.728;2023-08-17T21:41:21;6.27;;;2.63;;
12232;SDS011;6179;51.748;8.728;2023-08-17T21:47:22;4.73;;;3.53;;
12232;SDS011;6179;51.748;8.728;2023-08-17T21:53:23;3.07;;;2.63;;
12232;SDS011;6179;51.748;8.728;2023-08-17T21:59:23;11.50;;;3.87;;
12232;SDS011;6179;51.748;8.728;2023-08-17T22:05:24;9.33;;;4.00;;
12232;SDS011;6179;51.748;8.728;2023-08-17T22:11:24;6.80;;;4.57;;
12232;SDS011;6179;51.748;8.728;2023-08-17T22:17:25;7.37;;;4.17;;
12232;SDS011;6179;51.748;8.728;2023-08-17T22:23:26;6.80;;;4.37;;
12232;SDS011;6179;51.748;8.728;2023-08-17T22:29:26;10.50;;;5.60;;
12232;SDS011;6179;51.748;8.728;2023-08-17T22:35:27;14.07;;;5.47;;
12232;SDS011;6179;51.748;8.728;2023-08-17T22:41:27;10.43;;;6.77;;
12232;SDS011;6179;51.748;8.728;2023-08-17T22:47:29;14.50;;;6.47;;
12232;SDS011;6179;51.748;8.728;2023-08-17T22:53:30;8.60;;;5.40;;
12232;SDS011;6179;51.748;8.728;2023-08-17T22:59:31;10.50;;;6.70;;
12232;SDS011;6179;51.748;8.728;2023-08-17T23:05:31;8.67;;;5.00;;
12232;SDS011;6179;51.748;8.728;2023-08-17T23:11:33;12.03;;;6.20;;
12232;SDS011;6179;51.748;8.728;2023-08-17T23:17:33;15.33;;;6.00;;
12232;SDS011;6179;51.748;8.728;2023-08-17T23:23:34;20.20;;;7.40;;
12232;SDS011;6179;51.748;8.728;2023-08-17T23:29:35;11.30;;;6.07;;
12232;SDS011;6179;51.748;8.728;2023-08-17T23:35:36;17.00;;;7.10;;
12232;SDS011;6179;51.748;8.728;2023-08-17T23:41:38;15.70;;;5.83;;
12232;SDS011;6179;51.748;8.728;2023-08-17T23:47:39;11.67;;;6.50;;
12232;SDS011;6179;51.748;8.728;2023-08-17T23:53:39;13.93;;;5.83;;
12232;SDS011;6179;51.748;8.728;2023-08-17T23:59:40;9.90;;;5.60;;
